sensor_id;sensor_type;location;lat;lon;timestamp;P1;durP1;ratioP1;P2;durP2;ratioP2
39050;SDS011;24805;55.852;37.644;2023-09-07T00:01:50;4.20;;;0.20;;
39050;SDS011;24805;55.852;37.644;2023-09-07T00:06:54;1.10;;;0.20;;
39050;SDS011;24805;55.852;37.644;2023-09-07T00:11:57;1.10;;;0.10;;
39050;SDS011;24805;55.852;37.644;2023-09-07T00:16:59;2.20;;;0.45;;
39050;SDS011;24805;55.852;37.644;2023-09-07T00:22:02;0.82;;;0.15;;
39050;SDS011;24805;55.852;37.644;2023-09-07T00:27:05;1.08;;;0.30;;
39050;SDS011;24805;55.852;37.644;2023-09-07T00:32:09;2.15;;;0.32;;
39050;SDS011;24805;55.852;37.644;2023-09-07T00:37:11;1.38;;;0.22;;
39050;SDS011;24805;55.852;37.644;2023-09-07T00:42:13;2.03;;;0.30;;
39050;SDS011;24805;55.852;37.644;2023-09-07T00:47:16;1.23;;;0.20;;
39050;SDS011;24805;55.852;37.644;2023-09-07T00:52:19;1.05;;;0.30;;
39050;SDS011;24805;55.852;37.644;2023-09-07T00:57:22;2.05;;;0.28;;
39050;SDS011;24805;55.852;37.644;2023-09-07T01:02:24;1.80;;;0.30;;
39050;SDS011;24805;55.852;37.644;2023-09-07T01:07:32;3.15;;;0.40;;
39050;SDS011;24805;55.852;37.644;2023-09-07T01:12:39;2.20;;;0.30;;
39050;SDS011;24805;55.852;37.644;2023-09-07T01:17:42;2.33;;;0.38;;
39050;SDS011;24805;55.852;37.644;2023-09-07T01:22:45;1.90;;;0.15;;
39050;SDS011;24805;55.852;37.644;2023-09-07T01:27:49;3.35;;;0.30;;
39050;SDS011;24805;55.852;37.644;2023-09-07T01:32:52;0.82;;;0.30;;
39050;SDS011;24805;55.852;37.644;2023-09-07T01:37:54;2.88;;;0.30;;
39050;SDS011;24805;55.852;37.644;2023-09-07T01:42:56;2.25;;;0.60;;
39050;SDS011;24805;55.852;37.644;2023-09-07T01:47:59;3.03;;;0.20;;
39050;SDS011;24805;55.852;37.644;2023-09-07T01:53:02;2.10;;;0.40;;
39050;SDS011;24805;55.852;37.644;2023-09-07T01:58:08;0.60;;;0.10;;
39050;SDS011;24805;55.852;37.644;2023-09-07T02:03:10;1.45;;;0.40;;
39050;SDS011;24805;55.852;37.644;2023-09-07T02:08:12;2.85;;;0.30;;
39050;SDS011;24805;55.852;37.644;2023-09-07T02:13:14;2.53;;;0.57;;
39050;SDS011;24805;55.852;37.644;2023-09-07T02:18:17;2.13;;;0.30;;
39050;SDS011;24805;55.852;37.644;2023-09-07T02:23:39;3.40;;;0.30;;
39050;SDS011;24805;55.852;37.644;2023-09-07T02:28:41;2.22;;;0.30;;
39050;SDS011;24805;55.852;37.644;2023-09-07T02:33:44;2.10;;;0.30;;
39050;SDS011;24805;55.852;37.644;2023-09-07T02:38:46;2.58;;;0.20;;
39050;SDS011;24805;55.852;37.644;2023-09-07T02:43:48;1.60;;;0.32;;
39050;SDS011;24805;55.852;37.644;2023-09-07T02:48:51;3.13;;;0.30;;
39050;SDS011;24805;55.852;37.644;2023-09-07T02:53:53;1.17;;;0.30;;
39050;SDS011;24805;55.852;37.644;2023-09-07T02:58:55;1.40;;;0.30;;
39050;SDS011;24805;55.852;37.644;2023-09-07T03:03:58;1.70;;;0.30;;
39050;SDS011;24805;55.852;37.644;2023-09-07T03:09:01;2.92;;;0.40;;
39050;SDS011;24805;55.852;37.644;2023-09-07T03:14:03;1.30;;;0.30;;
39050;SDS011;24805;55.852;37.644;2023-09-07T03:19:05;2.00;;;0.40;;
39050;SDS011;24805;55.852;37.644;2023-09-07T03:24:08;1.80;;;0.60;;
39050;SDS011;24805;55.852;37.644;2023-09-07T03:29:11;2.10;;;0.20;;
39050;SDS011;24805;55.852;37.644;2023-09-07T03:34:13;1.13;;;0.20;;
39050;SDS011;24805;55.852;37.644;2023-09-07T03:39:16;1.35;;;0.30;;
39050;SDS011;24805;55.852;37.644;2023-09-07T03:44:20;3.60;;;0.30;;
39050;SDS011;24805;55.852;37.644;2023-09-07T03:49:23;1.50;;;0.30;;
39050;SDS011;24805;55.852;37.644;2023-09-07T03:54:25;1.90;;;0.32;;
39050;SDS011;24805;55.852;37.644;2023-09-07T03:59:28;3.47;;;0.32;;
39050;SDS011;24805;55.852;37.644;2023-09-07T04:04:30;4.97;;;0.55;;
39050;SDS011;24805;55.852;37.644;2023-09-07T04:09:33;4.05;;;0.52;;
39050;SDS011;24805;55.852;37.644;2023-09-07T04:14:35;3.28;;;0.70;;
39050;SDS011;24805;55.852;37.644;2023-09-07T04:19:37;3.05;;;0.40;;
39050;SDS011;24805;55.852;37.644;2023-09-07T04:24:40;7.13;;;1.27;;
39050;SDS011;24805;55.852;37.644;2023-09-07T04:29:43;1.70;;;0.40;;
39050;SDS011;24805;55.852;37.644;2023-09-07T04:34:46;3.58;;;0.57;;
39050;SDS011;24805;55.852;37.644;2023-09-07T04:39:50;3.72;;;0.40;;
39050;SDS011;24805;55.852;37.644;2023-09-07T04:44:55;2.88;;;0.50;;
39050;SDS011;24805;55.852;37.644;2023-09-07T04:49:58;3.33;;;0.32;;
39050;SDS011;24805;55.852;37.644;2023-09-07T04:55:00;2.10;;;0.40;;
39050;SDS011;24805;55.852;37.644;2023-09-07T05:00:06;4.38;;;0.50;;
39050;SDS011;24805;55.852;37.644;2023-09-07T05:05:09;4.68;;;0.70;;
39050;SDS011;24805;55.852;37.644;2023-09-07T05:10:12;2.38;;;0.40;;
39050;SDS011;24805;55.852;37.644;2023-09-07T05:15:15;2.03;;;0.20;;
39050;SDS011;24805;55.852;37.644;2023-09-07T05:20:17;2.38;;;0.55;;
39050;SDS011;24805;55.852;37.644;2023-09-07T05:25:20;1.60;;;0.63;;
39050;SDS011;24805;55.852;37.644;2023-09-07T05:30:22;1.85;;;0.30;;
39050;SDS011;24805;55.852;37.644;2023-09-07T05:35:25;2.25;;;0.17;;
39050;SDS011;24805;55.852;37.644;2023-09-07T05:40:34;2.95;;;0.20;;
39050;SDS011;24805;55.852;37.644;2023-09-07T05:45:41;2.35;;;0.40;;
39050;SDS011;24805;55.852;37.644;2023-09-07T05:50:45;3.78;;;0.40;;
39050;SDS011;24805;55.852;37.644;2023-09-07T05:55:48;3.17;;;0.30;;
39050;SDS011;24805;55.852;37.644;2023-09-07T06:00:50;1.13;;;0.20;;
39050;SDS011;24805;55.852;37.644;2023-09-07T06:05:52;2.05;;;0.22;;
39050;SDS011;24805;55.852;37.644;2023-09-07T06:10:55;3.03;;;0.20;;
39050;SDS011;24805;55.852;37.644;2023-09-07T06:15:57;0.63;;;0.20;;
39050;SDS011;24805;55.852;37.644;2023-09-07T06:21:03;2.72;;;0.30;;
39050;SDS011;24805;55.852;37.644;2023-09-07T06:26:07;2.72;;;0.30;;
39050;SDS011;24805;55.852;37.644;2023-09-07T06:31:10;2.47;;;0.32;;
39050;SDS011;24805;55.852;37.644;2023-09-07T06:36:13;2.17;;;0.30;;
39050;SDS011;24805;55.852;37.644;2023-09-07T06:41:15;2.67;;;0.20;;
39050;SDS011;24805;55.852;37.644;2023-09-07T06:46:17;0.90;;;0.20;;
39050;SDS011;24805;55.852;37.644;2023-09-07T06:51:20;0.93;;;0.25;;
39050;SDS011;24805;55.852;37.644;2023-09-07T06:56:22;1.15;;;0.20;;
39050;SDS011;24805;55.852;37.644;2023-09-07T07:01:25;2.70;;;0.30;;
39050;SDS011;24805;55.852;37.644;2023-09-07T07:06:27;3.20;;;0.75;;
39050;SDS011;24805;55.852;37.644;2023-09-07T07:11:29;1.55;;;0.30;;
39050;SDS011;24805;55.852;37.644;2023-09-07T07:16:32;4.60;;;0.30;;
39050;SDS011;24805;55.852;37.644;2023-09-07T07:21:35;3.20;;;0.20;;
39050;SDS011;24805;55.852;37.644;2023-09-07T07:26:40;4.10;;;0.30;;
39050;SDS011;24805;55.852;37.644;2023-09-07T07:31:42;3.53;;;0.90;;
39050;SDS011;24805;55.852;37.644;2023-09-07T07:36:45;1.02;;;0.40;;
39050;SDS011;24805;55.852;37.644;2023-09-07T07:41:48;0.77;;;0.10;;
39050;SDS011;24805;55.852;37.644;2023-09-07T07:46:51;1.95;;;0.20;;
39050;SDS011;24805;55.852;37.644;2023-09-07T07:51:53;2.72;;;0.17;;
39050;SDS011;24805;55.852;37.644;2023-09-07T07:56:58;1.48;;;0.10;;
39050;SDS011;24805;55.852;37.644;2023-09-07T08:02:00;0.45;;;0.10;;
39050;SDS011;24805;55.852;37.644;2023-09-07T08:07:03;0.82;;;0.10;;
39050;SDS011;24805;55.852;37.644;2023-09-07T08:12:07;2.58;;;0.10;;
39050;SDS011;24805;55.852;37.644;2023-09-07T08:17:10;0.40;;;0.05;;
39050;SDS011;24805;55.852;37.644;2023-09-07T08:22:13;1.60;;;0.15;;
39050;SDS011;24805;55.852;37.644;2023-09-07T08:27:15;1.98;;;0.10;;
39050;SDS011;24805;55.852;37.644;2023-09-07T08:32:25;2.92;;;0.10;;
39050;SDS011;24805;55.852;37.644;2023-09-07T08:37:27;2.53;;;0.30;;
39050;SDS011;24805;55.852;37.644;2023-09-07T08:42:31;2.78;;;0.30;;
39050;SDS011;24805;55.852;37.644;2023-09-07T08:47:34;1.95;;;0.10;;
39050;SDS011;24805;55.852;37.644;2023-09-07T08:52:38;2.40;;;0.25;;
39050;SDS011;24805;55.852;37.644;2023-09-07T08:57:40;4.05;;;0.15;;
39050;SDS011;24805;55.852;37.644;2023-09-07T09:02:43;3.60;;;0.20;;
39050;SDS011;24805;55.852;37.644;2023-09-07T09:08:01;0.50;;;0.10;;
39050;SDS011;24805;55.852;37.644;2023-09-07T09:13:04;1.42;;;0.10;;
39050;SDS011;24805;55.852;37.644;2023-09-07T09:18:10;2.60;;;0.10;;
39050;SDS011;24805;55.852;37.644;2023-09-07T09:23:16;0.65;;;0.15;;
39050;SDS011;24805;55.852;37.644;2023-09-07T09:28:18;4.13;;;0.70;;
39050;SDS011;24805;55.852;37.644;2023-09-07T09:33:21;3.03;;;0.40;;
39050;SDS011;24805;55.852;37.644;2023-09-07T09:38:24;2.17;;;0.20;;
39050;SDS011;24805;55.852;37.644;2023-09-07T09:43:27;1.23;;;0.40;;
39050;SDS011;24805;55.852;37.644;2023-09-07T09:48:29;1.65;;;0.15;;
39050;SDS011;24805;55.852;37.644;2023-09-07T09:53:34;1.33;;;0.30;;
39050;SDS011;24805;55.852;37.644;2023-09-07T09:58:38;1.27;;;0.20;;
39050;SDS011;24805;55.852;37.644;2023-09-07T10:03:42;1.85;;;0.20;;
39050;SDS011;24805;55.852;37.644;2023-09-07T10:08:59;1.70;;;0.10;;
39050;SDS011;24805;55.852;37.644;2023-09-07T10:14:06;1.45;;;0.35;;
39050;SDS011;24805;55.852;37.644;2023-09-07T10:19:19;0.88;;;0.20;;
39050;SDS011;24805;55.852;37.644;2023-09-07T10:24:30;1.08;;;0.20;;
39050;SDS011;24805;55.852;37.644;2023-09-07T10:29:41;0.73;;;0.10;;
39050;SDS011;24805;55.852;37.644;2023-09-07T10:34:45;3.05;;;0.20;;
39050;SDS011;24805;55.852;37.644;2023-09-07T10:39:48;2.65;;;0.20;;
39050;SDS011;24805;55.852;37.644;2023-09-07T10:44:52;1.05;;;0.10;;
39050;SDS011;24805;55.852;37.644;2023-09-07T10:49:56;0.70;;;0.13;;
39050;SDS011;24805;55.852;37.644;2023-09-07T10:54:59;1.60;;;0.17;;
39050;SDS011;24805;55.852;37.644;2023-09-07T11:00:01;0.77;;;0.17;;
39050;SDS011;24805;55.852;37.644;2023-09-07T11:05:05;1.27;;;0.10;;
39050;SDS011;24805;55.852;37.644;2023-09-07T11:10:08;1.85;;;0.10;;
39050;SDS011;24805;55.852;37.644;2023-09-07T11:15:11;1.65;;;0.10;;
39050;SDS011;24805;55.852;37.644;2023-09-07T11:20:14;2.38;;;0.30;;
39050;SDS011;24805;55.852;37.644;2023-09-07T11:25:16;1.55;;;0.10;;
39050;SDS011;24805;55.852;37.644;2023-09-07T11:30:19;0.90;;;0.22;;
39050;SDS011;24805;55.852;37.644;2023-09-07T11:35:21;2.17;;;0.10;;
39050;SDS011;24805;55.852;37.644;2023-09-07T11:40:23;3.60;;;0.40;;
39050;SDS011;24805;55.852;37.644;2023-09-07T11:45:27;0.77;;;0.15;;
39050;SDS011;24805;55.852;37.644;2023-09-07T11:50:30;1.77;;;0.20;;
39050;SDS011;24805;55.852;37.644;2023-09-07T11:55:33;3.33;;;0.20;;
39050;SDS011;24805;55.852;37.644;2023-09-07T12:00:36;2.50;;;0.28;;
39050;SDS011;24805;55.852;37.644;2023-09-07T12:05:38;2.38;;;0.20;;
39050;SDS011;24805;55.852;37.644;2023-09-07T12:10:41;2.03;;;0.22;;
39050;SDS011;24805;55.852;37.644;2023-09-07T12:15:44;1.63;;;0.32;;
39050;SDS011;24805;55.852;37.644;2023-09-07T12:20:46;1.75;;;0.30;;
39050;SDS011;24805;55.852;37.644;2023-09-07T12:25:48;1.25;;;0.22;;
39050;SDS011;24805;55.852;37.644;2023-09-07T12:30:52;2.97;;;0.30;;
39050;SDS011;24805;55.852;37.644;2023-09-07T12:35:55;2.72;;;0.35;;
39050;SDS011;24805;55.852;37.644;2023-09-07T12:40:58;0.65;;;0.20;;
39050;SDS011;24805;55.852;37.644;2023-09-07T12:46:00;1.27;;;0.20;;
39050;SDS011;24805;55.852;37.644;2023-09-07T12:51:03;0.95;;;0.20;;
39050;SDS011;24805;55.852;37.644;2023-09-07T12:56:05;0.93;;;0.20;;
39050;SDS011;24805;55.852;37.644;2023-09-07T13:01:08;1.40;;;0.20;;
39050;SDS011;24805;55.852;37.644;2023-09-07T13:06:17;0.60;;;0.15;;
39050;SDS011;24805;55.852;37.644;2023-09-07T13:11:19;2.72;;;0.25;;
39050;SDS011;24805;55.852;37.644;2023-09-07T13:16:21;3.22;;;0.20;;
39050;SDS011;24805;55.852;37.644;2023-09-07T13:21:23;1.75;;;0.20;;
39050;SDS011;24805;55.852;37.644;2023-09-07T13:26:26;0.75;;;0.20;;
39050;SDS011;24805;55.852;37.644;2023-09-07T13:31:28;2.70;;;0.65;;
39050;SDS011;24805;55.852;37.644;2023-09-07T13:36:30;1.13;;;0.25;;
39050;SDS011;24805;55.852;37.644;2023-09-07T13:41:32;1.10;;;0.30;;
39050;SDS011;24805;55.852;37.644;2023-09-07T13:46:34;2.00;;;0.32;;
39050;SDS011;24805;55.852;37.644;2023-09-07T13:51:37;3.47;;;0.35;;
39050;SDS011;24805;55.852;37.644;2023-09-07T13:56:41;0.90;;;0.20;;
39050;SDS011;24805;55.852;37.644;2023-09-07T14:01:46;1.17;;;0.20;;
39050;SDS011;24805;55.852;37.644;2023-09-07T14:06:48;0.82;;;0.40;;
39050;SDS011;24805;55.852;37.644;2023-09-07T14:11:50;1.60;;;0.40;;
39050;SDS011;24805;55.852;37.644;2023-09-07T14:16:53;6.13;;;0.32;;
39050;SDS011;24805;55.852;37.644;2023-09-07T14:21:58;2.80;;;0.30;;
39050;SDS011;24805;55.852;37.644;2023-09-07T14:27:00;4.35;;;0.70;;
39050;SDS011;24805;55.852;37.644;2023-09-07T14:32:03;2.78;;;0.57;;
39050;SDS011;24805;55.852;37.644;2023-09-07T14:37:05;0.60;;;0.20;;
39050;SDS011;24805;55.852;37.644;2023-09-07T14:42:08;2.42;;;0.45;;
39050;SDS011;24805;55.852;37.644;2023-09-07T14:47:15;2.38;;;0.38;;
39050;SDS011;24805;55.852;37.644;2023-09-07T14:52:18;2.97;;;0.40;;
39050;SDS011;24805;55.852;37.644;2023-09-07T14:57:21;1.95;;;0.38;;
39050;SDS011;24805;55.852;37.644;2023-09-07T15:02:23;2.05;;;0.30;;
39050;SDS011;24805;55.852;37.644;2023-09-07T15:07:25;2.97;;;0.50;;
39050;SDS011;24805;55.852;37.644;2023-09-07T15:12:28;1.58;;;0.60;;
39050;SDS011;24805;55.852;37.644;2023-09-07T15:17:30;2.33;;;0.30;;
39050;SDS011;24805;55.852;37.644;2023-09-07T15:22:32;1.52;;;0.22;;
39050;SDS011;24805;55.852;37.644;2023-09-07T15:27:35;1.33;;;0.50;;
39050;SDS011;24805;55.852;37.644;2023-09-07T15:32:37;2.10;;;0.30;;
39050;SDS011;24805;55.852;37.644;2023-09-07T15:37:41;1.15;;;0.45;;
39050;SDS011;24805;55.852;37.644;2023-09-07T15:42:47;1.00;;;0.40;;
39050;SDS011;24805;55.852;37.644;2023-09-07T15:47:50;2.17;;;0.60;;
39050;SDS011;24805;55.852;37.644;2023-09-07T15:52:52;1.77;;;0.40;;
39050;SDS011;24805;55.852;37.644;2023-09-07T15:57:54;1.27;;;0.38;;
39050;SDS011;24805;55.852;37.644;2023-09-07T16:02:57;5.38;;;2.80;;
39050;SDS011;24805;55.852;37.644;2023-09-07T16:07:59;3.85;;;0.70;;
39050;SDS011;24805;55.852;37.644;2023-09-07T16:13:02;1.60;;;0.47;;
39050;SDS011;24805;55.852;37.644;2023-09-07T16:18:04;1.33;;;0.60;;
39050;SDS011;24805;55.852;37.644;2023-09-07T16:23:06;1.48;;;0.47;;
39050;SDS011;24805;55.852;37.644;2023-09-07T16:28:11;3.97;;;0.60;;
39050;SDS011;24805;55.852;37.644;2023-09-07T16:33:13;2.08;;;0.45;;
39050;SDS011;24805;55.852;37.644;2023-09-07T16:38:16;5.07;;;1.08;;
39050;SDS011;24805;55.852;37.644;2023-09-07T16:43:18;2.78;;;0.70;;
39050;SDS011;24805;55.852;37.644;2023-09-07T16:48:20;4.25;;;0.70;;
39050;SDS011;24805;55.852;37.644;2023-09-07T16:53:22;7.03;;;1.02;;
39050;SDS011;24805;55.852;37.644;2023-09-07T16:58:25;5.15;;;0.70;;
39050;SDS011;24805;55.852;37.644;2023-09-07T17:08:49;7.10;;;1.15;;
39050;SDS011;24805;55.852;37.644;2023-09-07T17:13:52;9.57;;;1.25;;
39050;SDS011;24805;55.852;37.644;2023-09-07T17:19:03;2.80;;;0.80;;
39050;SDS011;24805;55.852;37.644;2023-09-07T17:24:07;11.95;;;1.30;;
39050;SDS011;24805;55.852;37.644;2023-09-07T17:29:10;6.03;;;1.23;;
39050;SDS011;24805;55.852;37.644;2023-09-07T17:34:12;6.57;;;1.20;;
39050;SDS011;24805;55.852;37.644;2023-09-07T17:39:15;5.47;;;1.00;;
39050;SDS011;24805;55.852;37.644;2023-09-07T17:44:17;7.38;;;1.00;;
39050;SDS011;24805;55.852;37.644;2023-09-07T17:49:19;8.13;;;1.35;;
39050;SDS011;24805;55.852;37.644;2023-09-07T17:54:21;5.05;;;1.55;;
39050;SDS011;24805;55.852;37.644;2023-09-07T17:59:23;4.95;;;1.30;;
39050;SDS011;24805;55.852;37.644;2023-09-07T18:04:25;7.35;;;1.40;;
39050;SDS011;24805;55.852;37.644;2023-09-07T18:09:28;5.93;;;1.00;;
39050;SDS011;24805;55.852;37.644;2023-09-07T18:14:30;2.25;;;1.05;;
39050;SDS011;24805;55.852;37.644;2023-09-07T18:19:33;3.15;;;0.95;;
39050;SDS011;24805;55.852;37.644;2023-09-07T18:24:36;6.65;;;1.10;;
39050;SDS011;24805;55.852;37.644;2023-09-07T18:29:39;5.47;;;1.08;;
39050;SDS011;24805;55.852;37.644;2023-09-07T18:34:41;3.38;;;1.00;;
39050;SDS011;24805;55.852;37.644;2023-09-07T18:39:43;5.63;;;1.40;;
39050;SDS011;24805;55.852;37.644;2023-09-07T18:44:45;4.68;;;1.10;;
39050;SDS011;24805;55.852;37.644;2023-09-07T18:49:48;5.22;;;1.30;;
39050;SDS011;24805;55.852;37.644;2023-09-07T18:54:50;4.07;;;1.30;;
39050;SDS011;24805;55.852;37.644;2023-09-07T18:59:53;2.55;;;1.08;;
39050;SDS011;24805;55.852;37.644;2023-09-07T19:04:55;5.55;;;1.20;;
39050;SDS011;24805;55.852;37.644;2023-09-07T19:09:59;3.85;;;1.17;;
39050;SDS011;24805;55.852;37.644;2023-09-07T19:15:01;5.13;;;1.17;;
39050;SDS011;24805;55.852;37.644;2023-09-07T19:20:05;4.80;;;0.85;;
39050;SDS011;24805;55.852;37.644;2023-09-07T19:25:07;3.65;;;1.20;;
39050;SDS011;24805;55.852;37.644;2023-09-07T19:30:10;11.98;;;3.20;;
39050;SDS011;24805;55.852;37.644;2023-09-07T19:35:12;2.83;;;0.90;;
39050;SDS011;24805;55.852;37.644;2023-09-07T19:40:14;3.70;;;0.77;;
39050;SDS011;24805;55.852;37.644;2023-09-07T19:45:16;3.67;;;0.82;;
39050;SDS011;24805;55.852;37.644;2023-09-07T19:50:19;2.75;;;0.55;;
39050;SDS011;24805;55.852;37.644;2023-09-07T19:55:21;1.58;;;0.70;;
39050;SDS011;24805;55.852;37.644;2023-09-07T20:00:23;3.08;;;0.52;;
39050;SDS011;24805;55.852;37.644;2023-09-07T20:05:26;1.98;;;0.70;;
39050;SDS011;24805;55.852;37.644;2023-09-07T20:10:29;1.20;;;0.57;;
39050;SDS011;24805;55.852;37.644;2023-09-07T20:15:31;2.53;;;0.80;;
39050;SDS011;24805;55.852;37.644;2023-09-07T20:20:33;1.70;;;0.70;;
39050;SDS011;24805;55.852;37.644;2023-09-07T20:25:36;4.45;;;0.60;;
39050;SDS011;24805;55.852;37.644;2023-09-07T20:30:38;1.73;;;0.77;;
39050;SDS011;24805;55.852;37.644;2023-09-07T20:35:40;2.42;;;0.70;;
39050;SDS011;24805;55.852;37.644;2023-09-07T20:40:44;2.92;;;0.70;;
39050;SDS011;24805;55.852;37.644;2023-09-07T20:45:46;5.25;;;0.93;;
39050;SDS011;24805;55.852;37.644;2023-09-07T20:50:49;4.07;;;0.70;;
39050;SDS011;24805;55.852;37.644;2023-09-07T20:55:52;3.50;;;0.80;;
39050;SDS011;24805;55.852;37.644;2023-09-07T21:00:54;3.33;;;0.88;;
39050;SDS011;24805;55.852;37.644;2023-09-07T21:05:57;3.25;;;0.90;;
39050;SDS011;24805;55.852;37.644;2023-09-07T21:10:59;3.50;;;0.95;;
39050;SDS011;24805;55.852;37.644;2023-09-07T21:16:02;1.80;;;0.98;;
39050;SDS011;24805;55.852;37.644;2023-09-07T21:21:04;4.40;;;1.48;;
39050;SDS011;24805;55.852;37.644;2023-09-07T21:26:06;3.53;;;0.80;;
39050;SDS011;24805;55.852;37.644;2023-09-07T21:31:09;1.65;;;0.80;;
39050;SDS011;24805;55.852;37.644;2023-09-07T21:36:12;1.83;;;1.02;;
39050;SDS011;24805;55.852;37.644;2023-09-07T21:41:14;2.58;;;1.00;;
39050;SDS011;24805;55.852;37.644;2023-09-07T21:46:17;3.03;;;1.13;;
39050;SDS011;24805;55.852;37.644;2023-09-07T21:51:19;3.28;;;0.80;;
39050;SDS011;24805;55.852;37.644;2023-09-07T21:56:23;2.55;;;0.90;;
39050;SDS011;24805;55.852;37.644;2023-09-07T22:01:25;3.17;;;0.93;;
39050;SDS011;24805;55.852;37.644;2023-09-07T22:06:28;3.63;;;1.40;;
39050;SDS011;24805;55.852;37.644;2023-09-07T22:11:30;2.78;;;1.05;;
39050;SDS011;24805;55.852;37.644;2023-09-07T22:16:34;2.55;;;0.80;;
39050;SDS011;24805;55.852;37.644;2023-09-07T22:21:36;3.13;;;1.10;;
39050;SDS011;24805;55.852;37.644;2023-09-07T22:26:38;4.18;;;1.00;;
39050;SDS011;24805;55.852;37.644;2023-09-07T22:31:41;3.80;;;0.90;;
39050;SDS011;24805;55.852;37.644;2023-09-07T22:36:43;1.92;;;1.42;;
39050;SDS011;24805;55.852;37.644;2023-09-07T22:41:45;2.63;;;0.98;;
39050;SDS011;24805;55.852;37.644;2023-09-07T22:46:47;3.25;;;1.70;;
39050;SDS011;24805;55.852;37.644;2023-09-07T22:51:50;2.92;;;0.90;;
39050;SDS011;24805;55.852;37.644;2023-09-07T22:56:52;3.20;;;0.95;;
39050;SDS011;24805;55.852;37.644;2023-09-07T23:01:54;4.97;;;1.13;;
39050;SDS011;24805;55.852;37.644;2023-09-07T23:06:56;4.45;;;0.95;;
39050;SDS011;24805;55.852;37.644;2023-09-07T23:12:00;2.45;;;0.90;;
39050;SDS011;24805;55.852;37.644;2023-09-07T23:17:02;4.63;;;1.17;;
39050;SDS011;24805;55.852;37.644;2023-09-07T23:22:04;4.30;;;1.27;;
39050;SDS011;24805;55.852;37.644;2023-09-07T23:27:07;3.10;;;1.00;;
39050;SDS011;24805;55.852;37.644;2023-09-07T23:32:09;3.53;;;1.10;;
39050;SDS011;24805;55.852;37.644;2023-09-07T23:37:11;3.40;;;1.08;;
39050;SDS011;24805;55.852;37.644;2023-09-07T23:42:13;4.53;;;1.30;;
39050;SDS011;24805;55.852;37.644;2023-09-07T23:47:15;2.53;;;1.00;;
39050;SDS011;24805;55.852;37.644;2023-09-07T23:52:18;3.78;;;1.30;;
39050;SDS011;24805;55.852;37.644;2023-09-07T23:57:20;2.40;;;1.00;;
